sensor_id;sensor_type;location;lat;lon;timestamp;pressure;altitude;pressure_sealevel;temperature;humidity
4745;BME280;2386;42.138;24.746;2023-05-19T00:01:12;99624.16;;;16.28;91.24
4745;BME280;2386;42.138;24.746;2023-05-19T00:03:49;99621.13;;;16.25;90.17
4745;BME280;2386;42.138;24.746;2023-05-19T00:06:23;99614.31;;;16.27;91.31
4745;BME280;2386;42.138;24.746;2023-05-19T00:08:56;99618.69;;;16.28;90.35
4745;BME280;2386;42.138;24.746;2023-05-19T00:11:22;99615.13;;;16.28;89.33
4745;BME280;2386;42.138;24.746;2023-05-19T00:13:48;99609.09;;;16.26;91.65
4745;BME280;2386;42.138;24.746;2023-05-19T00:16:15;99609.38;;;16.29;90.74
4745;BME280;2386;42.138;24.746;2023-05-19T00:18:41;99611.59;;;16.32;91.99
4745;BME280;2386;42.138;24.746;2023-05-19T00:21:07;99612.09;;;16.34;89.79
4745;BME280;2386;42.138;24.746;2023-05-19T00:23:32;99609.09;;;16.36;91.91
4745;BME280;2386;42.138;24.746;2023-05-19T00:25:58;99602.25;;;16.28;89.45
4745;BME280;2386;42.138;24.746;2023-05-19T00:28:23;99611.84;;;16.31;91.30
4745;BME280;2386;42.138;24.746;2023-05-19T00:30:50;99602.25;;;16.28;91.06
4745;BME280;2386;42.138;24.746;2023-05-19T00:33:15;99599.78;;;16.27;90.85
4745;BME280;2386;42.138;24.746;2023-05-19T00:35:40;99612.38;;;16.28;88.83
4745;BME280;2386;42.138;24.746;2023-05-19T00:38:06;99611.56;;;16.37;88.60
4745;BME280;2386;42.138;24.746;2023-05-19T00:40:34;99611.31;;;16.34;88.45
4745;BME280;2386;42.138;24.746;2023-05-19T00:43:00;99592.97;;;16.39;90.01
4745;BME280;2386;42.138;24.746;2023-05-19T00:45:27;99595.69;;;16.34;86.87
4745;BME280;2386;42.138;24.746;2023-05-19T00:47:53;99604.47;;;16.31;86.21
4745;BME280;2386;42.138;24.746;2023-05-19T00:50:18;99592.41;;;16.37;87.79
4745;BME280;2386;42.138;24.746;2023-05-19T00:52:44;99589.09;;;16.20;87.59
4745;BME280;2386;42.138;24.746;2023-05-19T00:55:10;99591.31;;;16.28;87.87
4745;BME280;2386;42.138;24.746;2023-05-19T00:57:36;99594.59;;;16.25;88.31
4745;BME280;2386;42.138;24.746;2023-05-19T01:00:02;99582.53;;;16.26;88.74
4745;BME280;2386;42.138;24.746;2023-05-19T01:02:28;99593.78;;;16.30;88.16
4745;BME280;2386;42.138;24.746;2023-05-19T01:04:55;99588.03;;;16.26;87.83
4745;BME280;2386;42.138;24.746;2023-05-19T01:07:21;99591.31;;;16.28;89.12
4745;BME280;2386;42.138;24.746;2023-05-19T01:09:47;99601.16;;;16.29;88.97
4745;BME280;2386;42.138;24.746;2023-05-19T01:12:14;99583.09;;;16.28;90.41
4745;BME280;2386;42.138;24.746;2023-05-19T01:14:39;99586.38;;;16.25;87.31
4745;BME280;2386;42.138;24.746;2023-05-19T01:17:10;99584.72;;;16.24;88.77
4745;BME280;2386;42.138;24.746;2023-05-19T01:28:30;99601.16;;;16.24;89.68
4745;BME280;2386;42.138;24.746;2023-05-19T01:31:02;99595.94;;;16.23;88.97
4745;BME280;2386;42.138;24.746;2023-05-19T01:33:31;99591.31;;;16.28;87.58
4745;BME280;2386;42.138;24.746;2023-05-19T01:35:58;99592.91;;;16.19;86.84
4745;BME280;2386;42.138;24.746;2023-05-19T01:38:27;99601.72;;;16.26;87.11
4745;BME280;2386;42.138;24.746;2023-05-19T01:40:55;99594.31;;;16.22;87.65
4745;BME280;2386;42.138;24.746;2023-05-19T01:43:24;99597.59;;;16.29;85.73
4745;BME280;2386;42.138;24.746;2023-05-19T01:45:50;99595.69;;;16.24;85.00
4745;BME280;2386;42.138;24.746;2023-05-19T01:48:16;99605.00;;;16.28;85.08
4745;BME280;2386;42.138;24.746;2023-05-19T01:50:42;99602.25;;;16.28;85.43
4745;BME280;2386;42.138;24.746;2023-05-19T01:53:08;99590.19;;;16.24;86.25
4745;BME280;2386;42.138;24.746;2023-05-19T01:55:44;99600.09;;;16.30;86.30
4745;BME280;2386;42.138;24.746;2023-05-19T01:58:24;99604.44;;;16.21;85.18
4745;BME280;2386;42.138;24.746;2023-05-19T02:06:22;99612.38;;;16.28;85.08
4745;BME280;2386;42.138;24.746;2023-05-19T02:09:15;99606.63;;;16.34;87.24
4745;BME280;2386;42.138;24.746;2023-05-19T02:11:51;99606.38;;;16.31;85.78
4745;BME280;2386;42.138;24.746;2023-05-19T02:14:22;99605.56;;;16.30;84.89
4745;BME280;2386;42.138;24.746;2023-05-19T02:16:49;99609.38;;;16.34;84.60
4745;BME280;2386;42.138;24.746;2023-05-19T02:19:24;99610.75;;;16.32;86.18
4745;BME280;2386;42.138;24.746;2023-05-19T02:21:50;99612.66;;;16.26;84.23
4745;BME280;2386;42.138;24.746;2023-05-19T02:24:15;99616.47;;;16.25;84.47
4745;BME280;2386;42.138;24.746;2023-05-19T02:26:41;99616.75;;;16.24;84.25
4745;BME280;2386;42.138;24.746;2023-05-19T02:29:07;99620.34;;;16.29;85.62
4745;BME280;2386;42.138;24.746;2023-05-19T02:31:32;99618.41;;;16.25;85.11
4745;BME280;2386;42.138;24.746;2023-05-19T02:33:57;99618.69;;;16.28;85.41
4745;BME280;2386;42.138;24.746;2023-05-19T02:36:23;99615.94;;;16.23;85.58
4745;BME280;2386;42.138;24.746;2023-05-19T02:38:50;99602.22;;;16.18;85.26
4745;BME280;2386;42.138;24.746;2023-05-19T02:41:16;99609.34;;;16.19;85.99
4745;BME280;2386;42.138;24.746;2023-05-19T02:43:41;99613.16;;;16.18;87.42
4745;BME280;2386;42.138;24.746;2023-05-19T02:46:06;99624.69;;;16.25;86.59
4745;BME280;2386;42.138;24.746;2023-05-19T02:48:32;99609.06;;;16.16;85.58
4745;BME280;2386;42.138;24.746;2023-05-19T02:50:57;99623.25;;;16.07;87.04
4745;BME280;2386;42.138;24.746;2023-05-19T02:53:22;99613.13;;;16.08;85.98
4745;BME280;2386;42.138;24.746;2023-05-19T02:55:48;99613.94;;;16.08;85.70
4745;BME280;2386;42.138;24.746;2023-05-19T02:58:13;99618.31;;;16.04;86.26
4745;BME280;2386;42.138;24.746;2023-05-19T03:00:39;99618.88;;;16.06;86.10
4745;BME280;2386;42.138;24.746;2023-05-19T03:03:04;99630.09;;;16.10;86.60
4745;BME280;2386;42.138;24.746;2023-05-19T03:05:30;99613.09;;;16.03;87.06
4745;BME280;2386;42.138;24.746;2023-05-19T03:07:55;99625.41;;;16.00;86.86
4745;BME280;2386;42.138;24.746;2023-05-19T03:10:21;99617.47;;;16.04;87.26
4745;BME280;2386;42.138;24.746;2023-05-19T03:12:46;99629.53;;;16.08;87.42
4745;BME280;2386;42.138;24.746;2023-05-19T03:15:11;99627.34;;;16.05;87.23
4745;BME280;2386;42.138;24.746;2023-05-19T03:17:40;99635.56;;;16.05;88.30
4745;BME280;2386;42.138;24.746;2023-05-19T03:20:06;99635.00;;;16.03;87.92
4745;BME280;2386;42.138;24.746;2023-05-19T03:22:32;99625.09;;;15.97;88.69
4745;BME280;2386;42.138;24.746;2023-05-19T03:24:57;99634.13;;;15.97;88.33
4745;BME280;2386;42.138;24.746;2023-05-19T03:27:23;99641.00;;;16.00;89.15
4745;BME280;2386;42.138;24.746;2023-05-19T03:29:48;99636.59;;;15.99;89.51
4745;BME280;2386;42.138;24.746;2023-05-19T03:32:14;99636.94;;;16.07;91.33
4745;BME280;2386;42.138;24.746;2023-05-19T03:34:39;99643.16;;;15.98;89.17
4745;BME280;2386;42.138;24.746;2023-05-19T03:37:05;99643.69;;;15.95;89.83
4745;BME280;2386;42.138;24.746;2023-05-19T03:39:30;99645.91;;;15.98;88.24
4745;BME280;2386;42.138;24.746;2023-05-19T03:41:56;99636.34;;;16.00;89.25
4745;BME280;2386;42.138;24.746;2023-05-19T03:44:21;99646.75;;;16.03;89.43
4745;BME280;2386;42.138;24.746;2023-05-19T03:46:46;99654.16;;;16.03;89.10
4745;BME280;2386;42.138;24.746;2023-05-19T03:49:12;99661.81;;;16.06;89.35
4745;BME280;2386;42.138;24.746;2023-05-19T03:51:39;99653.88;;;16.04;89.58
4745;BME280;2386;42.138;24.746;2023-05-19T03:54:05;99648.97;;;16.06;88.33
4745;BME280;2386;42.138;24.746;2023-05-19T03:56:30;99643.78;;;16.10;88.76
4745;BME280;2386;42.138;24.746;2023-05-19T03:58:56;99641.03;;;16.10;88.71
4745;BME280;2386;42.138;24.746;2023-05-19T04:01:22;99649.28;;;16.15;87.96
4745;BME280;2386;42.138;24.746;2023-05-19T04:03:47;99650.97;;;16.21;87.47
4745;BME280;2386;42.138;24.746;2023-05-19T04:06:13;99660.53;;;16.24;89.75
4745;BME280;2386;42.138;24.746;2023-05-19T04:08:38;99659.72;;;16.23;88.98
4745;BME280;2386;42.138;24.746;2023-05-19T04:11:04;99668.75;;;16.24;89.38
4745;BME280;2386;42.138;24.746;2023-05-19T04:13:32;99653.44;;;16.23;88.99
4745;BME280;2386;42.138;24.746;2023-05-19T04:15:57;99663.25;;;16.19;87.86
4745;BME280;2386;42.138;24.746;2023-05-19T04:18:23;99664.13;;;16.29;87.48
4745;BME280;2386;42.138;24.746;2023-05-19T04:20:48;99661.94;;;16.31;87.33
4745;BME280;2386;42.138;24.746;2023-05-19T04:23:14;99649.63;;;16.34;87.35
4745;BME280;2386;42.138;24.746;2023-05-19T04:25:39;99662.75;;;16.37;88.06
4745;BME280;2386;42.138;24.746;2023-05-19T04:28:05;99666.06;;;16.44;87.14
4745;BME280;2386;42.138;24.746;2023-05-19T04:30:31;99667.19;;;16.48;87.60
4745;BME280;2386;42.138;24.746;2023-05-19T04:32:58;99662.00;;;16.52;89.10
4745;BME280;2386;42.138;24.746;2023-05-19T04:35:25;99648.88;;;16.59;88.79
4745;BME280;2386;42.138;24.746;2023-05-19T04:37:50;99663.44;;;16.64;85.77
4745;BME280;2386;42.138;24.746;2023-05-19T04:40:18;99681.81;;;16.69;85.98
4745;BME280;2386;42.138;24.746;2023-05-19T04:42:45;99676.06;;;16.70;86.29
4745;BME280;2386;42.138;24.746;2023-05-19T04:45:10;99681.00;;;16.73;87.26
4745;BME280;2386;42.138;24.746;2023-05-19T04:47:40;99679.63;;;16.71;84.92
4745;BME280;2386;42.138;24.746;2023-05-19T04:50:06;99684.59;;;16.89;85.87
4745;BME280;2386;42.138;24.746;2023-05-19T04:52:32;99678.59;;;16.92;85.42
4745;BME280;2386;42.138;24.746;2023-05-19T04:54:58;99678.31;;;16.99;84.85
4745;BME280;2386;42.138;24.746;2023-05-19T04:57:23;99688.47;;;17.08;84.33
4745;BME280;2386;42.138;24.746;2023-05-19T04:59:48;99693.41;;;17.12;83.90
4745;BME280;2386;42.138;24.746;2023-05-19T05:02:14;99692.59;;;17.21;83.03
4745;BME280;2386;42.138;24.746;2023-05-19T05:04:40;99688.47;;;17.24;82.76
4745;BME280;2386;42.138;24.746;2023-05-19T05:07:08;99708.22;;;17.31;83.36
4745;BME280;2386;42.138;24.746;2023-05-19T05:09:34;99704.94;;;17.34;82.07
4745;BME280;2386;42.138;24.746;2023-05-19T05:12:00;99692.59;;;17.41;81.57
4745;BME280;2386;42.138;24.746;2023-05-19T05:14:26;99699.47;;;17.49;84.35
4745;BME280;2386;42.138;24.746;2023-05-19T05:16:52;99699.19;;;17.51;81.70
4745;BME280;2386;42.138;24.746;2023-05-19T05:19:18;99708.53;;;17.65;83.95
4745;BME280;2386;42.138;24.746;2023-05-19T05:21:44;99708.25;;;17.61;81.64
4745;BME280;2386;42.138;24.746;2023-05-19T05:24:10;99713.50;;;17.68;81.20
4745;BME280;2386;42.138;24.746;2023-05-19T05:26:36;99706.59;;;17.60;80.90
4745;BME280;2386;42.138;24.746;2023-05-19T05:29:02;99708.81;;;17.68;80.54
4745;BME280;2386;42.138;24.746;2023-05-19T05:31:28;99704.44;;;17.72;81.87
4745;BME280;2386;42.138;24.746;2023-05-19T05:33:53;99698.41;;;17.65;81.06
4745;BME280;2386;42.138;24.746;2023-05-19T05:36:19;99699.50;;;17.69;81.11
4745;BME280;2386;42.138;24.746;2023-05-19T05:38:44;99717.88;;;17.79;81.40
4745;BME280;2386;42.138;24.746;2023-05-19T05:41:10;99718.41;;;17.81;80.15
4745;BME280;2386;42.138;24.746;2023-05-19T05:43:35;99722.00;;;17.82;80.94
4745;BME280;2386;42.138;24.746;2023-05-19T05:46:00;99719.22;;;17.87;83.34
4745;BME280;2386;42.138;24.746;2023-05-19T05:48:26;99724.69;;;17.92;81.74
4745;BME280;2386;42.138;24.746;2023-05-19T05:50:52;99730.19;;;17.97;82.01
4745;BME280;2386;42.138;24.746;2023-05-19T05:53:19;99730.72;;;17.94;80.45
4745;BME280;2386;42.138;24.746;2023-05-19T05:55:46;99724.69;;;18.02;81.59
4745;BME280;2386;42.138;24.746;2023-05-19T05:58:12;99730.72;;;18.09;80.74
4745;BME280;2386;42.138;24.746;2023-05-19T06:00:39;99736.72;;;18.16;80.85
4745;BME280;2386;42.138;24.746;2023-05-19T06:03:08;99738.91;;;18.24;80.43
4745;BME280;2386;42.138;24.746;2023-05-19T06:05:34;99749.34;;;18.27;79.56
4745;BME280;2386;42.138;24.746;2023-05-19T06:07:59;99735.06;;;18.25;80.34
4745;BME280;2386;42.138;24.746;2023-05-19T06:10:26;99741.34;;;18.36;79.99
4745;BME280;2386;42.138;24.746;2023-05-19T06:12:51;99747.09;;;18.45;81.22
4745;BME280;2386;42.138;24.746;2023-05-19T06:15:17;99750.09;;;18.53;82.08
4745;BME280;2386;42.138;24.746;2023-05-19T06:17:42;99750.66;;;18.50;80.96
4745;BME280;2386;42.138;24.746;2023-05-19T06:20:08;99742.72;;;18.44;80.62
4745;BME280;2386;42.138;24.746;2023-05-19T06:22:34;99755.06;;;18.51;80.85
4745;BME280;2386;42.138;24.746;2023-05-19T06:25:00;99753.13;;;18.52;80.00
4745;BME280;2386;42.138;24.746;2023-05-19T06:27:25;99761.63;;;18.55;80.30
4745;BME280;2386;42.138;24.746;2023-05-19T06:29:51;99767.94;;;18.61;82.24
4745;BME280;2386;42.138;24.746;2023-05-19T06:32:16;99766.84;;;18.62;80.56
4745;BME280;2386;42.138;24.746;2023-05-19T06:34:41;99755.88;;;18.52;80.50
4745;BME280;2386;42.138;24.746;2023-05-19T06:37:07;99771.53;;;18.56;81.48
4745;BME280;2386;42.138;24.746;2023-05-19T06:39:32;99769.28;;;18.58;81.82
4745;BME280;2386;42.138;24.746;2023-05-19T06:41:57;99760.22;;;18.58;82.10
4745;BME280;2386;42.138;24.746;2023-05-19T06:44:23;99770.09;;;18.74;83.21
4745;BME280;2386;42.138;24.746;2023-05-19T06:46:48;99771.44;;;18.82;82.29
4745;BME280;2386;42.138;24.746;2023-05-19T06:49:14;99771.16;;;18.83;81.22
4745;BME280;2386;42.138;24.746;2023-05-19T06:51:39;99769.75;;;18.91;80.83
4745;BME280;2386;42.138;24.746;2023-05-19T06:54:05;99768.38;;;18.88;81.82
4745;BME280;2386;42.138;24.746;2023-05-19T06:56:30;99767.00;;;18.91;82.55
4745;BME280;2386;42.138;24.746;2023-05-19T06:58:56;99756.81;;;18.96;82.73
4745;BME280;2386;42.138;24.746;2023-05-19T07:01:21;99762.47;;;19.15;81.70
4745;BME280;2386;42.138;24.746;2023-05-19T07:03:46;99762.69;;;19.29;80.18
4745;BME280;2386;42.138;24.746;2023-05-19T07:06:12;99757.63;;;19.41;79.77
4745;BME280;2386;42.138;24.746;2023-05-19T07:08:37;99759.22;;;19.52;79.78
4745;BME280;2386;42.138;24.746;2023-05-19T07:11:03;99748.38;;;19.66;81.73
4745;BME280;2386;42.138;24.746;2023-05-19T07:13:29;99758.75;;;19.79;78.31
4745;BME280;2386;42.138;24.746;2023-05-19T07:15:54;99743.03;;;19.80;76.05
4745;BME280;2386;42.138;24.746;2023-05-19T07:18:20;99746.81;;;19.89;76.40
4745;BME280;2386;42.138;24.746;2023-05-19T07:20:46;99746.25;;;19.92;77.26
4745;BME280;2386;42.138;24.746;2023-05-19T07:23:11;99741.81;;;19.96;78.65
4745;BME280;2386;42.138;24.746;2023-05-19T07:25:37;99748.81;;;20.07;77.22
4745;BME280;2386;42.138;24.746;2023-05-19T07:28:02;99755.06;;;20.18;78.64
4745;BME280;2386;42.138;24.746;2023-05-19T07:30:28;99754.91;;;20.33;77.92
4745;BME280;2386;42.138;24.746;2023-05-19T07:32:54;99755.13;;;20.42;78.29
4745;BME280;2386;42.138;24.746;2023-05-19T07:35:19;99745.81;;;20.32;73.50
4745;BME280;2386;42.138;24.746;2023-05-19T07:37:47;99750.09;;;20.49;75.64
4745;BME280;2386;42.138;24.746;2023-05-19T07:40:13;99752.19;;;20.57;75.62
4745;BME280;2386;42.138;24.746;2023-05-19T07:42:39;99743.88;;;20.62;73.55
4745;BME280;2386;42.138;24.746;2023-05-19T07:45:05;99744.34;;;20.69;73.91
4745;BME280;2386;42.138;24.746;2023-05-19T07:47:31;99745.63;;;20.77;73.12
4745;BME280;2386;42.138;24.746;2023-05-19T07:49:56;99761.13;;;20.91;72.05
4745;BME280;2386;42.138;24.746;2023-05-19T07:52:21;99746.50;;;20.91;74.38
4745;BME280;2386;42.138;24.746;2023-05-19T07:54:47;99749.03;;;20.87;71.44
4745;BME280;2386;42.138;24.746;2023-05-19T07:57:12;99743.81;;;20.86;72.40
4745;BME280;2386;42.138;24.746;2023-05-19T07:59:39;99745.69;;;20.90;72.02
4745;BME280;2386;42.138;24.746;2023-05-19T08:02:05;99746.75;;;20.94;72.38
4745;BME280;2386;42.138;24.746;2023-05-19T08:04:31;99748.38;;;20.95;71.61
4745;BME280;2386;42.138;24.746;2023-05-19T08:07:00;99738.81;;;20.88;70.68
4745;BME280;2386;42.138;24.746;2023-05-19T08:09:25;99750.16;;;20.86;70.36
4745;BME280;2386;42.138;24.746;2023-05-19T08:11:50;99752.25;;;20.94;71.29
4745;BME280;2386;42.138;24.746;2023-05-19T08:14:16;99744.88;;;20.90;70.69
4745;BME280;2386;42.138;24.746;2023-05-19T08:16:41;99749.09;;;20.82;69.41
4745;BME280;2386;42.138;24.746;2023-05-19T08:22:29;99751.34;;;20.80;71.19
4745;BME280;2386;42.138;24.746;2023-05-19T08:24:55;99764.09;;;20.95;72.60
4745;BME280;2386;42.138;24.746;2023-05-19T08:27:21;99759.41;;;20.95;72.37
4745;BME280;2386;42.138;24.746;2023-05-19T08:29:46;99770.91;;;21.03;72.10
4745;BME280;2386;42.138;24.746;2023-05-19T08:32:19;99778.28;;;21.07;69.28
4745;BME280;2386;42.138;24.746;2023-05-19T08:34:44;99774.66;;;21.12;69.92
4745;BME280;2386;42.138;24.746;2023-05-19T08:37:10;99774.25;;;21.23;69.19
4745;BME280;2386;42.138;24.746;2023-05-19T08:39:36;99778.50;;;21.35;70.26
4745;BME280;2386;42.138;24.746;2023-05-19T08:42:01;99774.31;;;21.37;66.61
4745;BME280;2386;42.138;24.746;2023-05-19T08:44:27;99788.22;;;21.51;67.69
4745;BME280;2386;42.138;24.746;2023-05-19T08:46:53;99782.09;;;21.54;65.87
4745;BME280;2386;42.138;24.746;2023-05-19T08:49:22;99772.28;;;21.61;64.85
4745;BME280;2386;42.138;24.746;2023-05-19T08:52:14;99771.28;;;21.71;66.16
4745;BME280;2386;42.138;24.746;2023-05-19T08:55:06;99770.31;;;21.81;68.58
4745;BME280;2386;42.138;24.746;2023-05-19T08:57:34;99761.34;;;21.89;69.56
4745;BME280;2386;42.138;24.746;2023-05-19T09:00:01;99763.59;;;21.87;64.10
4745;BME280;2386;42.138;24.746;2023-05-19T09:02:28;99773.88;;;22.00;61.58
4745;BME280;2386;42.138;24.746;2023-05-19T09:04:54;99754.25;;;22.02;62.50
4745;BME280;2386;42.138;24.746;2023-05-19T09:07:21;99764.31;;;22.11;62.86
4745;BME280;2386;42.138;24.746;2023-05-19T09:09:49;99764.13;;;22.21;62.79
4745;BME280;2386;42.138;24.746;2023-05-19T09:12:15;99759.63;;;22.25;59.42
4745;BME280;2386;42.138;24.746;2023-05-19T09:14:40;99765.03;;;22.30;59.24
4745;BME280;2386;42.138;24.746;2023-05-19T09:17:06;99764.41;;;22.34;57.41
4745;BME280;2386;42.138;24.746;2023-05-19T09:19:31;99763.09;;;22.45;58.79
4745;BME280;2386;42.138;24.746;2023-05-19T09:21:58;99766.91;;;22.49;57.58
4745;BME280;2386;42.138;24.746;2023-05-19T09:24:25;99754.72;;;22.50;55.31
4745;BME280;2386;42.138;24.746;2023-05-19T09:26:54;99765.56;;;22.60;57.33
4745;BME280;2386;42.138;24.746;2023-05-19T09:29:19;99770.91;;;22.70;57.74
4745;BME280;2386;42.138;24.746;2023-05-19T09:31:52;99766.28;;;22.66;56.20
4745;BME280;2386;42.138;24.746;2023-05-19T09:34:19;99762.81;;;22.74;54.95
4745;BME280;2386;42.138;24.746;2023-05-19T09:36:47;99760.50;;;22.81;56.32
4745;BME280;2386;42.138;24.746;2023-05-19T09:39:21;99756.69;;;22.90;57.83
4745;BME280;2386;42.138;24.746;2023-05-19T09:41:54;99744.47;;;22.64;54.61
4745;BME280;2386;42.138;24.746;2023-05-19T09:44:23;99752.50;;;22.79;55.43
4745;BME280;2386;42.138;24.746;2023-05-19T09:46:52;99747.38;;;22.86;58.34
4745;BME280;2386;42.138;24.746;2023-05-19T09:49:28;99748.41;;;22.90;53.72
4745;BME280;2386;42.138;24.746;2023-05-19T09:54:22;99754.06;;;23.08;53.89
4745;BME280;2386;42.138;24.746;2023-05-19T09:56:59;99749.56;;;23.12;57.25
4745;BME280;2386;42.138;24.746;2023-05-19T09:59:25;99746.88;;;23.20;57.14
4745;BME280;2386;42.138;24.746;2023-05-19T10:01:57;99757.25;;;23.15;52.39
4745;BME280;2386;42.138;24.746;2023-05-19T10:04:24;99748.94;;;23.15;50.53
4745;BME280;2386;42.138;24.746;2023-05-19T10:06:54;99746.88;;;23.20;50.49
4745;BME280;2386;42.138;24.746;2023-05-19T10:09:24;99759.66;;;23.30;51.96
4745;BME280;2386;42.138;24.746;2023-05-19T10:11:54;99736.22;;;23.14;52.23
4745;BME280;2386;42.138;24.746;2023-05-19T10:14:28;99737.47;;;23.08;52.74
4745;BME280;2386;42.138;24.746;2023-05-19T10:17:02;99736.13;;;23.19;53.92
4745;BME280;2386;42.138;24.746;2023-05-19T10:19:28;99725.03;;;23.19;52.72
4745;BME280;2386;42.138;24.746;2023-05-19T10:21:54;99743.38;;;23.28;52.20
4745;BME280;2386;42.138;24.746;2023-05-19T10:24:20;99732.19;;;23.34;55.43
4745;BME280;2386;42.138;24.746;2023-05-19T10:27:07;99724.47;;;23.44;53.41
4745;BME280;2386;42.138;24.746;2023-05-19T10:29:38;99724.50;;;23.31;51.63
4745;BME280;2386;42.138;24.746;2023-05-19T10:32:21;99720.06;;;23.43;54.54
4745;BME280;2386;42.138;24.746;2023-05-19T10:40:32;99727.53;;;23.56;53.67
4745;BME280;2386;42.138;24.746;2023-05-19T10:43:12;99731.19;;;23.66;51.14
4745;BME280;2386;42.138;24.746;2023-05-19T10:50:48;99729.59;;;24.04;48.23
4745;BME280;2386;42.138;24.746;2023-05-19T10:53:17;99732.38;;;24.04;47.08
4745;BME280;2386;42.138;24.746;2023-05-19T10:56:04;99732.75;;;24.11;47.28
4745;BME280;2386;42.138;24.746;2023-05-19T11:01:12;99714.75;;;24.00;47.28
4745;BME280;2386;42.138;24.746;2023-05-19T11:03:50;99724.13;;;24.13;48.76
4745;BME280;2386;42.138;24.746;2023-05-19T11:06:38;99718.53;;;24.04;48.76
4745;BME280;2386;42.138;24.746;2023-05-19T11:09:19;99708.44;;;24.08;51.56
4745;BME280;2386;42.138;24.746;2023-05-19T11:11:50;99735.81;;;24.32;51.84
4745;BME280;2386;42.138;24.746;2023-05-19T11:14:18;99736.69;;;24.41;50.31
4745;BME280;2386;42.138;24.746;2023-05-19T11:16:49;99746.53;;;24.65;50.83
4745;BME280;2386;42.138;24.746;2023-05-19T11:19:28;99749.72;;;23.29;48.95
4745;BME280;2386;42.138;24.746;2023-05-19T11:21:54;99756.41;;;23.28;51.26
4745;BME280;2386;42.138;24.746;2023-05-19T11:24:43;99740.44;;;23.61;51.63
4745;BME280;2386;42.138;24.746;2023-05-19T11:30:11;99737.47;;;23.57;50.99
4745;BME280;2386;42.138;24.746;2023-05-19T11:32:39;99730.38;;;23.51;52.72
4745;BME280;2386;42.138;24.746;2023-05-19T11:35:09;99712.75;;;23.47;53.43
4745;BME280;2386;42.138;24.746;2023-05-19T11:37:35;99710.34;;;23.32;49.43
4745;BME280;2386;42.138;24.746;2023-05-19T11:40:05;99741.91;;;23.89;49.67
4745;BME280;2386;42.138;24.746;2023-05-19T11:42:31;99721.03;;;24.14;52.58
4745;BME280;2386;42.138;24.746;2023-05-19T11:44:58;99727.41;;;24.46;50.66
4745;BME280;2386;42.138;24.746;2023-05-19T11:47:24;99726.16;;;24.69;53.82
4745;BME280;2386;42.138;24.746;2023-05-19T11:49:50;99718.03;;;24.81;50.55
4745;BME280;2386;42.138;24.746;2023-05-19T11:52:22;99717.94;;;25.38;56.24
4745;BME280;2386;42.138;24.746;2023-05-19T11:54:48;99715.84;;;26.34;53.09
4745;BME280;2386;42.138;24.746;2023-05-19T11:57:14;99714.41;;;28.36;48.19
4745;BME280;2386;42.138;24.746;2023-05-19T11:59:40;99708.31;;;30.62;38.56
4745;BME280;2386;42.138;24.746;2023-05-19T12:02:19;99712.47;;;32.88;37.82
4745;BME280;2386;42.138;24.746;2023-05-19T12:04:46;99711.69;;;34.55;34.12
4745;BME280;2386;42.138;24.746;2023-05-19T12:07:13;99725.41;;;35.95;28.81
4745;BME280;2386;42.138;24.746;2023-05-19T12:09:42;99715.00;;;36.91;27.74
4745;BME280;2386;42.138;24.746;2023-05-19T12:12:07;99713.44;;;37.92;27.07
4745;BME280;2386;42.138;24.746;2023-05-19T12:14:34;99712.38;;;37.64;25.85
4745;BME280;2386;42.138;24.746;2023-05-19T12:17:12;99699.28;;;36.37;29.87
4745;BME280;2386;42.138;24.746;2023-05-19T12:19:39;99708.47;;;37.23;27.22
4745;BME280;2386;42.138;24.746;2023-05-19T12:22:05;99712.91;;;37.20;25.16
4745;BME280;2386;42.138;24.746;2023-05-19T12:24:33;99712.44;;;37.46;25.15
4745;BME280;2386;42.138;24.746;2023-05-19T12:27:17;99709.41;;;38.52;26.62
4745;BME280;2386;42.138;24.746;2023-05-19T12:29:48;99699.09;;;39.17;26.32
4745;BME280;2386;42.138;24.746;2023-05-19T12:32:15;99711.84;;;40.00;24.74
4745;BME280;2386;42.138;24.746;2023-05-19T12:34:41;99703.97;;;40.38;22.01
4745;BME280;2386;42.138;24.746;2023-05-19T12:37:07;99700.56;;;40.47;23.26
4745;BME280;2386;42.138;24.746;2023-05-19T12:39:34;99698.78;;;40.06;22.17
4745;BME280;2386;42.138;24.746;2023-05-19T12:42:06;99700.63;;;40.43;24.15
4745;BME280;2386;42.138;24.746;2023-05-19T12:44:48;99692.25;;;41.02;22.19
4745;BME280;2386;42.138;24.746;2023-05-19T12:47:16;99698.44;;;40.78;21.12
4745;BME280;2386;42.138;24.746;2023-05-19T12:50:06;99690.84;;;41.34;22.25
4745;BME280;2386;42.138;24.746;2023-05-19T12:52:44;99689.91;;;40.97;21.86
4745;BME280;2386;42.138;24.746;2023-05-19T12:55:10;99682.66;;;41.56;20.52
4745;BME280;2386;42.138;24.746;2023-05-19T12:57:37;99680.97;;;41.58;22.49
4745;BME280;2386;42.138;24.746;2023-05-19T13:02:36;99679.59;;;41.27;20.39
4745;BME280;2386;42.138;24.746;2023-05-19T13:05:18;99676.81;;;41.63;21.39
4745;BME280;2386;42.138;24.746;2023-05-19T13:07:58;99668.94;;;40.88;20.49
4745;BME280;2386;42.138;24.746;2023-05-19T13:10:25;99673.97;;;41.23;21.68
4745;BME280;2386;42.138;24.746;2023-05-19T13:12:54;99683.03;;;41.18;20.00
4745;BME280;2386;42.138;24.746;2023-05-19T13:18:41;99678.19;;;40.49;20.31
4745;BME280;2386;42.138;24.746;2023-05-19T13:21:07;99678.88;;;39.41;21.01
4745;BME280;2386;42.138;24.746;2023-05-19T13:23:32;99669.69;;;38.96;22.39
4745;BME280;2386;42.138;24.746;2023-05-19T13:29:21;99675.28;;;38.07;23.59
4745;BME280;2386;42.138;24.746;2023-05-19T13:31:46;99668.13;;;39.29;21.74
4745;BME280;2386;42.138;24.746;2023-05-19T13:34:11;99674.00;;;39.42;22.35
4745;BME280;2386;42.138;24.746;2023-05-19T13:36:37;99665.19;;;40.71;22.27
4745;BME280;2386;42.138;24.746;2023-05-19T13:39:03;99681.72;;;41.43;21.20
4745;BME280;2386;42.138;24.746;2023-05-19T13:41:28;99667.19;;;41.37;20.44
4745;BME280;2386;42.138;24.746;2023-05-19T13:43:57;99677.44;;;40.45;21.62
4745;BME280;2386;42.138;24.746;2023-05-19T13:46:23;99673.41;;;38.45;24.52
4745;BME280;2386;42.138;24.746;2023-05-19T13:48:48;99665.31;;;36.62;25.53
4745;BME280;2386;42.138;24.746;2023-05-19T13:51:14;99670.47;;;34.36;27.82
4745;BME280;2386;42.138;24.746;2023-05-19T13:53:39;99670.22;;;32.81;29.73
4745;BME280;2386;42.138;24.746;2023-05-19T13:56:05;99669.53;;;31.73;33.16
4745;BME280;2386;42.138;24.746;2023-05-19T13:58:30;99665.06;;;30.60;32.85